Terminal Aerodrome Forecast
Issued by NWS

Home | Current Version | Previous Version | Graphics & Text | Print | Product List | Glossary On
Versions: 1 2 3 4 5 6 7 8 9 10 11 12 13 14 15
048
FTUS43 KMPX 091720
TAFRWF
TAF
KRWF 091720Z 0918/1018 31009KT P6SM SCT025 BKN200
     FM100000 21007KT P6SM BKN100
     FM100600 28011KT P6SM BKN250
     FM100900 30012G18KT P6SM SCT025 BKN150=

USA.gov is the U.S. government's official web portal to all federal, state and local government web resources and services.